sensor_id;sensor_type;location;lat;lon;timestamp;pressure;altitude;pressure_sealevel;temperature;humidity
58373;BME280;44177;43.356;27.672;2023-11-19T15:02:40;97983.09;;;0.54;100.00
58373;BME280;44177;43.356;27.672;2023-11-19T15:05:07;97966.34;;;0.38;100.00
58373;BME280;44177;43.356;27.672;2023-11-19T15:07:36;97958.44;;;0.27;100.00
58373;BME280;44177;43.356;27.672;2023-11-19T15:10:01;97963.44;;;0.34;100.00
58373;BME280;44177;43.356;27.672;2023-11-19T15:12:30;97970.34;;;0.40;100.00
58373;BME280;44177;43.356;27.672;2023-11-19T15:14:55;97972.53;;;0.38;100.00
58373;BME280;44177;43.356;27.672;2023-11-19T15:17:21;97931.16;;;0.15;100.00
58373;BME280;44177;43.356;27.672;2023-11-19T15:19:47;97957.31;;;0.28;100.00
58373;BME280;44177;43.356;27.672;2023-11-19T15:22:13;97955.75;;;0.27;100.00
58373;BME280;44177;43.356;27.672;2023-11-19T15:24:38;97960.06;;;0.23;100.00
58373;BME280;44177;43.356;27.672;2023-11-19T15:27:06;97968.72;;;0.15;100.00
58373;BME280;44177;43.356;27.672;2023-11-19T15:29:34;97955.59;;;0.13;100.00
58373;BME280;44177;43.356;27.672;2023-11-19T15:32:00;97950.34;;;0.03;100.00
58373;BME280;44177;43.356;27.672;2023-11-19T15:34:25;97959.75;;;0.01;100.00
58373;BME280;44177;43.356;27.672;2023-11-19T15:36:50;97952.22;;;0.03;100.00
58373;BME280;44177;43.356;27.672;2023-11-19T15:39:16;97945.81;;;-0.02;100.00
58373;BME280;44177;43.356;27.672;2023-11-19T15:41:41;97940.97;;;0.01;100.00
58373;BME280;44177;43.356;27.672;2023-11-19T15:44:07;97942.91;;;-0.05;100.00
58373;BME280;44177;43.356;27.672;2023-11-19T15:46:33;97891.31;;;-0.51;100.00
58373;BME280;44177;43.356;27.672;2023-11-19T15:48:58;97949.25;;;-0.25;100.00
58373;BME280;44177;43.356;27.672;2023-11-19T15:51:24;97925.88;;;-0.20;100.00
58373;BME280;44177;43.356;27.672;2023-11-19T15:53:49;97938.53;;;-0.25;100.00
58373;BME280;44177;43.356;27.672;2023-11-19T15:56:15;97942.72;;;-0.14;100.00
58373;BME280;44177;43.356;27.672;2023-11-19T15:58:41;97948.63;;;-0.12;100.00
58373;BME280;44177;43.356;27.672;2023-11-19T16:01:07;97946.84;;;-0.27;100.00
58373;BME280;44177;43.356;27.672;2023-11-19T16:03:33;97945.50;;;-0.24;100.00
58373;BME280;44177;43.356;27.672;2023-11-19T16:05:59;97907.44;;;-0.26;100.00
58373;BME280;44177;43.356;27.672;2023-11-19T16:08:24;97940.84;;;-0.13;100.00
58373;BME280;44177;43.356;27.672;2023-11-19T16:10:50;97935.69;;;-0.10;100.00
58373;BME280;44177;43.356;27.672;2023-11-19T16:13:16;97942.34;;;-0.02;100.00
58373;BME280;44177;43.356;27.672;2023-11-19T16:15:42;97925.59;;;-0.18;100.00
58373;BME280;44177;43.356;27.672;2023-11-19T16:18:07;97911.09;;;-0.17;100.00
58373;BME280;44177;43.356;27.672;2023-11-19T16:20:35;97911.16;;;-0.22;100.00
58373;BME280;44177;43.356;27.672;2023-11-19T16:23:01;97930.19;;;0.06;100.00
58373;BME280;44177;43.356;27.672;2023-11-19T16:25:29;97920.03;;;0.03;100.00
58373;BME280;44177;43.356;27.672;2023-11-19T16:27:54;97922.75;;;-0.03;100.00
58373;BME280;44177;43.356;27.672;2023-11-19T16:30:21;97881.59;;;-0.17;100.00
58373;BME280;44177;43.356;27.672;2023-11-19T16:32:57;97904.41;;;0.10;100.00
58373;BME280;44177;43.356;27.672;2023-11-19T16:35:26;97914.53;;;0.18;100.00
58373;BME280;44177;43.356;27.672;2023-11-19T16:37:51;97926.16;;;0.33;100.00
58373;BME280;44177;43.356;27.672;2023-11-19T16:40:17;97913.16;;;0.21;100.00
58373;BME280;44177;43.356;27.672;2023-11-19T16:42:43;97925.09;;;0.34;100.00
58373;BME280;44177;43.356;27.672;2023-11-19T16:45:11;97928.78;;;0.38;100.00
58373;BME280;44177;43.356;27.672;2023-11-19T16:47:37;97932.53;;;0.37;100.00
58373;BME280;44177;43.356;27.672;2023-11-19T16:50:03;97917.25;;;0.37;100.00
58373;BME280;44177;43.356;27.672;2023-11-19T16:52:32;97922.88;;;0.36;100.00
58373;BME280;44177;43.356;27.672;2023-11-19T16:54:58;97920.50;;;0.34;100.00
58373;BME280;44177;43.356;27.672;2023-11-19T16:57:24;97919.41;;;0.35;100.00
58373;BME280;44177;43.356;27.672;2023-11-19T16:59:50;97937.88;;;0.42;100.00
58373;BME280;44177;43.356;27.672;2023-11-19T17:02:24;97932.38;;;0.52;100.00
58373;BME280;44177;43.356;27.672;2023-11-19T17:04:50;97934.56;;;0.50;100.00
58373;BME280;44177;43.356;27.672;2023-11-19T17:07:16;97887.97;;;0.17;100.00
58373;BME280;44177;43.356;27.672;2023-11-19T17:09:42;97928.16;;;0.46;100.00
58373;BME280;44177;43.356;27.672;2023-11-19T17:12:08;97930.03;;;0.45;100.00
58373;BME280;44177;43.356;27.672;2023-11-19T17:14:34;97931.28;;;0.53;100.00
58373;BME280;44177;43.356;27.672;2023-11-19T17:17:00;97943.91;;;0.53;100.00
58373;BME280;44177;43.356;27.672;2023-11-19T17:19:26;97941.03;;;0.44;100.00
58373;BME280;44177;43.356;27.672;2023-11-19T17:21:52;97947.63;;;0.57;100.00
58373;BME280;44177;43.356;27.672;2023-11-19T17:24:17;97905.78;;;0.31;100.00
58373;BME280;44177;43.356;27.672;2023-11-19T17:26:43;97959.63;;;0.65;100.00
58373;BME280;44177;43.356;27.672;2023-11-19T17:29:09;97950.06;;;0.53;100.00
58373;BME280;44177;43.356;27.672;2023-11-19T17:31:36;97963.59;;;0.67;100.00
58373;BME280;44177;43.356;27.672;2023-11-19T17:34:02;97955.22;;;0.50;100.00
58373;BME280;44177;43.356;27.672;2023-11-19T17:36:28;97953.78;;;0.57;100.00
58373;BME280;44177;43.356;27.672;2023-11-19T17:38:53;97928.66;;;0.48;100.00
58373;BME280;44177;43.356;27.672;2023-11-19T17:41:19;97939.78;;;0.60;100.00
58373;BME280;44177;43.356;27.672;2023-11-19T17:43:44;97942.44;;;0.66;100.00
58373;BME280;44177;43.356;27.672;2023-11-19T17:46:10;97944.38;;;0.60;100.00
58373;BME280;44177;43.356;27.672;2023-11-19T17:48:35;97940.59;;;0.61;100.00
58373;BME280;44177;43.356;27.672;2023-11-19T17:51:01;97953.16;;;0.66;100.00
58373;BME280;44177;43.356;27.672;2023-11-19T17:53:27;97951.84;;;0.63;100.00
58373;BME280;44177;43.356;27.672;2023-11-19T17:55:54;97947.28;;;0.63;100.00
58373;BME280;44177;43.356;27.672;2023-11-19T17:58:20;97937.41;;;0.59;100.00
58373;BME280;44177;43.356;27.672;2023-11-19T18:00:47;97949.66;;;0.65;100.00
58373;BME280;44177;43.356;27.672;2023-11-19T18:03:12;97937.53;;;0.68;100.00
58373;BME280;44177;43.356;27.672;2023-11-19T18:05:38;97934.84;;;0.68;100.00
58373;BME280;44177;43.356;27.672;2023-11-19T18:08:07;97939.22;;;0.63;100.00
58373;BME280;44177;43.356;27.672;2023-11-19T18:10:35;97928.78;;;0.62;100.00
58373;BME280;44177;43.356;27.672;2023-11-19T18:13:01;97936.00;;;0.61;100.00
58373;BME280;44177;43.356;27.672;2023-11-19T18:15:28;97887.84;;;0.27;100.00
58373;BME280;44177;43.356;27.672;2023-11-19T18:17:53;97913.56;;;0.52;100.00
58373;BME280;44177;43.356;27.672;2023-11-19T18:20:19;97918.03;;;0.62;100.00
58373;BME280;44177;43.356;27.672;2023-11-19T18:22:45;97916.22;;;0.57;100.00
58373;BME280;44177;43.356;27.672;2023-11-19T18:25:11;97912.94;;;0.60;100.00
58373;BME280;44177;43.356;27.672;2023-11-19T18:27:40;97912.34;;;0.44;100.00
58373;BME280;44177;43.356;27.672;2023-11-19T18:30:08;97904.84;;;0.41;100.00
58373;BME280;44177;43.356;27.672;2023-11-19T18:32:38;97910.00;;;0.38;100.00
58373;BME280;44177;43.356;27.672;2023-11-19T18:35:04;97899.63;;;0.31;100.00
58373;BME280;44177;43.356;27.672;2023-11-19T18:37:38;97904.69;;;0.33;100.00
58373;BME280;44177;43.356;27.672;2023-11-19T18:40:04;97925.34;;;0.56;100.00
58373;BME280;44177;43.356;27.672;2023-11-19T18:42:30;97918.38;;;0.55;100.00
58373;BME280;44177;43.356;27.672;2023-11-19T18:44:56;97918.44;;;0.50;100.00
58373;BME280;44177;43.356;27.672;2023-11-19T18:47:21;97918.63;;;0.35;100.00
58373;BME280;44177;43.356;27.672;2023-11-19T18:49:47;97888.34;;;0.05;100.00
58373;BME280;44177;43.356;27.672;2023-11-19T18:52:14;97891.75;;;0.15;100.00
58373;BME280;44177;43.356;27.672;2023-11-19T18:54:39;97925.94;;;0.29;100.00
58373;BME280;44177;43.356;27.672;2023-11-19T18:57:05;97924.88;;;0.25;100.00
58373;BME280;44177;43.356;27.672;2023-11-19T18:59:31;97927.81;;;0.28;100.00
58373;BME280;44177;43.356;27.672;2023-11-19T19:01:57;97940.09;;;0.35;100.00
58373;BME280;44177;43.356;27.672;2023-11-19T19:04:22;97931.97;;;0.40;100.00
58373;BME280;44177;43.356;27.672;2023-11-19T19:06:48;97928.38;;;0.25;100.00
58373;BME280;44177;43.356;27.672;2023-11-19T19:09:14;97928.56;;;0.34;100.00
58373;BME280;44177;43.356;27.672;2023-11-19T19:11:44;97934.16;;;0.38;100.00
58373;BME280;44177;43.356;27.672;2023-11-19T19:14:09;97922.84;;;0.41;100.00
58373;BME280;44177;43.356;27.672;2023-11-19T19:16:35;97930.31;;;0.44;100.00
58373;BME280;44177;43.356;27.672;2023-11-19T19:19:02;97934.03;;;0.48;100.00
58373;BME280;44177;43.356;27.672;2023-11-19T19:21:30;97933.59;;;0.41;100.00
58373;BME280;44177;43.356;27.672;2023-11-19T19:23:56;97931.56;;;0.52;100.00
58373;BME280;44177;43.356;27.672;2023-11-19T19:26:24;97944.38;;;0.60;100.00
58373;BME280;44177;43.356;27.672;2023-11-19T19:28:50;97948.13;;;0.59;100.00
58373;BME280;44177;43.356;27.672;2023-11-19T19:31:15;97950.06;;;0.53;100.00
58373;BME280;44177;43.356;27.672;2023-11-19T19:33:43;97950.25;;;0.62;100.00
58373;BME280;44177;43.356;27.672;2023-11-19T19:36:09;97952.19;;;0.56;100.00
58373;BME280;44177;43.356;27.672;2023-11-19T19:38:35;97944.22;;;0.51;100.00
58373;BME280;44177;43.356;27.672;2023-11-19T19:41:00;97952.09;;;0.67;100.00
58373;BME280;44177;43.356;27.672;2023-11-19T19:43:30;97961.78;;;0.62;100.00
58373;BME280;44177;43.356;27.672;2023-11-19T19:45:55;97947.84;;;0.60;100.00
58373;BME280;44177;43.356;27.672;2023-11-19T19:48:21;97963.84;;;0.71;100.00
58373;BME280;44177;43.356;27.672;2023-11-19T19:50:46;97954.47;;;0.68;100.00
58373;BME280;44177;43.356;27.672;2023-11-19T19:53:12;97957.09;;;0.73;100.00
58373;BME280;44177;43.356;27.672;2023-11-19T19:55:37;97952.53;;;0.74;100.00
58373;BME280;44177;43.356;27.672;2023-11-19T19:58:03;97972.25;;;0.83;99.70
58373;BME280;44177;43.356;27.672;2023-11-19T20:00:30;97952.16;;;0.81;99.55
58373;BME280;44177;43.356;27.672;2023-11-19T20:02:56;97968.94;;;0.91;98.92
58373;BME280;44177;43.356;27.672;2023-11-19T20:05:23;97953.47;;;0.83;98.76
58373;BME280;44177;43.356;27.672;2023-11-19T20:07:49;97962.56;;;0.87;98.52
58373;BME280;44177;43.356;27.672;2023-11-19T20:10:16;97969.84;;;0.87;97.57
58373;BME280;44177;43.356;27.672;2023-11-19T20:12:41;97953.09;;;0.71;97.24
58373;BME280;44177;43.356;27.672;2023-11-19T20:15:08;97977.41;;;0.79;96.91
58373;BME280;44177;43.356;27.672;2023-11-19T20:17:34;97972.84;;;0.80;96.46
58373;BME280;44177;43.356;27.672;2023-11-19T20:20:00;97976.09;;;0.77;95.91
58373;BME280;44177;43.356;27.672;2023-11-19T20:22:26;97955.78;;;0.71;95.50
58373;BME280;44177;43.356;27.672;2023-11-19T20:24:52;97954.59;;;0.58;94.61
58373;BME280;44177;43.356;27.672;2023-11-19T20:27:18;97948.09;;;0.40;94.43
58373;BME280;44177;43.356;27.672;2023-11-19T20:29:47;97948.25;;;0.24;94.89
58373;BME280;44177;43.356;27.672;2023-11-19T20:32:12;97946.47;;;0.14;95.23
58373;BME280;44177;43.356;27.672;2023-11-19T20:34:39;97940.31;;;0.14;95.47
58373;BME280;44177;43.356;27.672;2023-11-19T20:37:04;97942.97;;;0.14;95.80
58373;BME280;44177;43.356;27.672;2023-11-19T20:39:30;97936.59;;;0.10;95.86
58373;BME280;44177;43.356;27.672;2023-11-19T20:41:55;97935.97;;;0.18;95.36
58373;BME280;44177;43.356;27.672;2023-11-19T20:44:21;97941.84;;;0.20;96.23
58373;BME280;44177;43.356;27.672;2023-11-19T20:46:46;97943.50;;;0.16;97.63
58373;BME280;44177;43.356;27.672;2023-11-19T20:49:12;97927.00;;;0.04;99.27
58373;BME280;44177;43.356;27.672;2023-11-19T20:51:38;97939.28;;;0.10;100.00
58373;BME280;44177;43.356;27.672;2023-11-19T20:54:04;97934.38;;;0.17;100.00
58373;BME280;44177;43.356;27.672;2023-11-19T20:56:31;97896.31;;;-0.14;100.00
58373;BME280;44177;43.356;27.672;2023-11-19T20:58:57;97936.88;;;0.08;100.00
58373;BME280;44177;43.356;27.672;2023-11-19T21:01:22;97912.09;;;-0.08;100.00
58373;BME280;44177;43.356;27.672;2023-11-19T21:03:48;97919.06;;;-0.07;100.00
58373;BME280;44177;43.356;27.672;2023-11-19T21:06:14;97934.53;;;0.02;100.00
58373;BME280;44177;43.356;27.672;2023-11-19T21:08:42;97940.41;;;0.04;100.00
58373;BME280;44177;43.356;27.672;2023-11-19T21:11:10;97929.97;;;0.02;100.00
58373;BME280;44177;43.356;27.672;2023-11-19T21:13:35;97923.41;;;0.13;100.00
58373;BME280;44177;43.356;27.672;2023-11-19T21:16:01;97923.03;;;0.25;100.00
58373;BME280;44177;43.356;27.672;2023-11-19T21:18:27;97913.16;;;0.21;100.00
58373;BME280;44177;43.356;27.672;2023-11-19T21:20:53;97901.03;;;0.23;100.00
58373;BME280;44177;43.356;27.672;2023-11-19T21:23:18;97905.31;;;0.24;100.00
58373;BME280;44177;43.356;27.672;2023-11-19T21:25:46;97902.19;;;0.17;100.00
58373;BME280;44177;43.356;27.672;2023-11-19T21:28:12;97899.97;;;0.24;100.00
58373;BME280;44177;43.356;27.672;2023-11-19T21:30:39;97882.94;;;0.10;100.00
58373;BME280;44177;43.356;27.672;2023-11-19T21:33:05;97893.06;;;0.18;100.00
58373;BME280;44177;43.356;27.672;2023-11-19T21:35:30;97918.50;;;0.21;100.00
58373;BME280;44177;43.356;27.672;2023-11-19T21:37:57;97926.25;;;0.22;100.00
58373;BME280;44177;43.356;27.672;2023-11-19T21:40:23;97928.66;;;0.24;100.00
58373;BME280;44177;43.356;27.672;2023-11-19T21:42:48;97935.28;;;0.31;100.00
58373;BME280;44177;43.356;27.672;2023-11-19T21:45:16;97930.47;;;0.28;100.00
58373;BME280;44177;43.356;27.672;2023-11-19T21:47:42;97910.75;;;0.19;100.00
58373;BME280;44177;43.356;27.672;2023-11-19T21:50:07;97925.19;;;0.23;100.00
58373;BME280;44177;43.356;27.672;2023-11-19T21:52:33;97907.59;;;0.12;100.00
58373;BME280;44177;43.356;27.672;2023-11-19T21:55:02;97914.00;;;0.16;100.00
58373;BME280;44177;43.356;27.672;2023-11-19T21:57:31;97864.38;;;-0.11;100.00
58373;BME280;44177;43.356;27.672;2023-11-19T21:59:57;97902.97;;;0.18;100.00
58373;BME280;44177;43.356;27.672;2023-11-19T22:02:25;97895.91;;;0.27;100.00
58373;BME280;44177;43.356;27.672;2023-11-19T22:04:50;97888.59;;;0.33;100.00
58373;BME280;44177;43.356;27.672;2023-11-19T22:07:16;97913.88;;;0.51;100.00
58373;BME280;44177;43.356;27.672;2023-11-19T22:09:42;97918.59;;;0.59;100.00
58373;BME280;44177;43.356;27.672;2023-11-19T22:12:07;97916.06;;;0.68;100.00
58373;BME280;44177;43.356;27.672;2023-11-19T22:14:35;97908.75;;;0.73;100.00
58373;BME280;44177;43.356;27.672;2023-11-19T22:17:01;97898.81;;;0.74;100.00
58373;BME280;44177;43.356;27.672;2023-11-19T22:19:28;97916.16;;;0.82;99.64
58373;BME280;44177;43.356;27.672;2023-11-19T22:21:55;97908.41;;;0.80;99.55
58373;BME280;44177;43.356;27.672;2023-11-19T22:24:20;97919.03;;;0.90;99.03
58373;BME280;44177;43.356;27.672;2023-11-19T22:26:46;97902.69;;;0.87;98.78
58373;BME280;44177;43.356;27.672;2023-11-19T22:29:11;97916.56;;;0.94;98.55
58373;BME280;44177;43.356;27.672;2023-11-19T22:31:37;97916.81;;;0.92;98.59
58373;BME280;44177;43.356;27.672;2023-11-19T22:34:03;97918.06;;;1.00;98.48
58373;BME280;44177;43.356;27.672;2023-11-19T22:36:29;97890.91;;;0.83;98.10
58373;BME280;44177;43.356;27.672;2023-11-19T22:38:55;97882.97;;;0.72;97.97
58373;BME280;44177;43.356;27.672;2023-11-19T22:41:21;97905.63;;;0.85;97.90
58373;BME280;44177;43.356;27.672;2023-11-19T22:43:47;97924.31;;;0.96;98.02
58373;BME280;44177;43.356;27.672;2023-11-19T22:46:12;97919.03;;;0.90;97.85
58373;BME280;44177;43.356;27.672;2023-11-19T22:48:38;97915.75;;;0.93;97.75
58373;BME280;44177;43.356;27.672;2023-11-19T22:51:04;97911.19;;;0.94;97.26
58373;BME280;44177;43.356;27.672;2023-11-19T22:53:30;97911.97;;;0.94;97.27
58373;BME280;44177;43.356;27.672;2023-11-19T22:55:55;97897.06;;;0.83;97.29
58373;BME280;44177;43.356;27.672;2023-11-19T22:58:21;97913.06;;;0.93;96.93
58373;BME280;44177;43.356;27.672;2023-11-19T23:00:46;97915.22;;;0.91;96.62
58373;BME280;44177;43.356;27.672;2023-11-19T23:03:12;97910.44;;;0.88;96.33
58373;BME280;44177;43.356;27.672;2023-11-19T23:05:38;97915.81;;;0.88;96.09
58373;BME280;44177;43.356;27.672;2023-11-19T23:08:03;97916.97;;;0.82;96.23
58373;BME280;44177;43.356;27.672;2023-11-19T23:10:29;97897.22;;;0.73;96.45
58373;BME280;44177;43.356;27.672;2023-11-19T23:12:54;97894.03;;;0.71;96.49
58373;BME280;44177;43.356;27.672;2023-11-19T23:15:22;97885.22;;;0.65;96.43
58373;BME280;44177;43.356;27.672;2023-11-19T23:17:50;97881.69;;;0.70;97.01
58373;BME280;44177;43.356;27.672;2023-11-19T23:20:15;97879.50;;;0.72;97.03
58373;BME280;44177;43.356;27.672;2023-11-19T23:22:42;97868.22;;;0.75;96.80
58373;BME280;44177;43.356;27.672;2023-11-19T23:25:08;97888.53;;;0.81;96.62
58373;BME280;44177;43.356;27.672;2023-11-19T23:27:35;97887.13;;;0.84;96.55
58373;BME280;44177;43.356;27.672;2023-11-19T23:30:01;97878.56;;;0.82;96.33
58373;BME280;44177;43.356;27.672;2023-11-19T23:32:28;97835.38;;;0.59;95.67
58373;BME280;44177;43.356;27.672;2023-11-19T23:34:53;97891.13;;;0.86;95.68
58373;BME280;44177;43.356;27.672;2023-11-19T23:37:19;97872.84;;;0.88;95.47
58373;BME280;44177;43.356;27.672;2023-11-19T23:39:44;97860.94;;;0.75;95.51
58373;BME280;44177;43.356;27.672;2023-11-19T23:42:10;97871.03;;;0.84;95.13
58373;BME280;44177;43.356;27.672;2023-11-19T23:44:36;97842.28;;;0.65;95.00
58373;BME280;44177;43.356;27.672;2023-11-19T23:47:01;97860.59;;;0.82;94.69
58373;BME280;44177;43.356;27.672;2023-11-19T23:49:27;97867.91;;;0.96;94.72
58373;BME280;44177;43.356;27.672;2023-11-19T23:51:56;97840.84;;;0.92;94.64
58373;BME280;44177;43.356;27.672;2023-11-19T23:54:25;97827.63;;;0.96;94.46
58373;BME280;44177;43.356;27.672;2023-11-19T23:56:50;97852.84;;;1.14;94.48
58373;BME280;44177;43.356;27.672;2023-11-19T23:59:16;97848.13;;;1.24;93.86
